createdAt,value
2023-04-01T00:01:06.828Z,1.08
2023-04-01T00:05:11.436Z,0.50
2023-04-01T00:09:15.576Z,0.50
2023-04-01T00:13:18.470Z,0.40
2023-04-01T00:17:21.131Z,0.60
2023-04-01T00:21:24.377Z,0.47
2023-04-01T00:25:28.383Z,0.75
2023-04-01T00:29:31.705Z,0.52
2023-04-01T00:33:34.650Z,0.47
2023-04-01T00:37:38.655Z,0.60
2023-04-01T00:41:42.797Z,0.30
2023-04-01T00:45:47.513Z,0.30
2023-04-01T00:49:53.196Z,0.50
2023-04-01T00:53:58.903Z,0.80
2023-04-01T00:58:06.106Z,0.57
2023-04-01T01:02:12.949Z,0.60
2023-04-01T01:06:40.005Z,0.68
2023-04-01T01:10:48.282Z,0.60
2023-04-01T01:14:57.526Z,0.30
2023-04-01T01:19:11.530Z,0.30
2023-04-01T01:23:58.573Z,0.32
2023-04-01T01:28:16.685Z,0.30
2023-04-01T01:32:42.186Z,0.47
2023-04-01T01:36:49.743Z,0.40
2023-04-01T01:40:55.358Z,0.35
2023-04-01T01:45:01.650Z,0.20
2023-04-01T01:49:07.530Z,0.30
2023-04-01T01:53:13.496Z,0.40
2023-04-01T01:57:20.050Z,0.30
2023-04-01T02:01:26.725Z,0.55
2023-04-01T02:05:32.654Z,0.20
2023-04-01T02:09:37.649Z,0.50
2023-04-01T02:13:45.141Z,0.40
2023-04-01T02:17:49.857Z,0.50
2023-04-01T02:21:57.446Z,0.40
2023-04-01T02:26:01.907Z,0.30
2023-04-01T02:30:05.601Z,0.57
2023-04-01T02:34:08.635Z,0.43
2023-04-01T02:38:11.367Z,0.40
2023-04-01T02:42:15.555Z,0.47
2023-04-01T02:46:18.862Z,0.70
2023-04-01T02:50:21.547Z,0.43
2023-04-01T02:54:24.162Z,0.43
2023-04-01T02:58:28.180Z,0.40
2023-04-01T03:02:30.927Z,0.50
2023-04-01T03:06:33.875Z,0.52
2023-04-01T03:10:36.530Z,0.30
2023-04-01T03:14:40.513Z,0.70
2023-04-01T03:18:43.333Z,0.40
2023-04-01T03:22:46.842Z,0.55
2023-04-01T03:26:49.474Z,0.50
2023-04-01T03:30:53.502Z,0.30
2023-04-01T03:34:56.162Z,0.70
2023-04-01T03:38:58.839Z,0.43
2023-04-01T03:43:01.706Z,0.40
2023-04-01T03:47:05.803Z,0.40
2023-04-01T03:51:09.216Z,0.52
2023-04-01T03:55:12.001Z,0.65
2023-04-01T03:59:14.896Z,0.35
2023-04-01T04:03:18.970Z,0.40
2023-04-01T04:07:21.669Z,0.40
2023-04-01T04:11:24.814Z,0.30
2023-04-01T04:15:27.475Z,0.25
2023-04-01T04:19:35.825Z,0.45
2023-04-01T04:23:38.516Z,0.65
2023-04-01T04:27:41.345Z,0.20
2023-04-01T04:31:44.686Z,0.73
2023-04-01T04:35:48.784Z,0.70
2023-04-01T04:39:51.427Z,0.20
2023-04-01T04:43:55.946Z,0.93
2023-04-01T04:47:58.638Z,0.30
2023-04-01T04:52:02.710Z,0.30
2023-04-01T04:56:05.510Z,0.40
2023-04-01T05:00:10.994Z,0.47
2023-04-01T05:04:13.596Z,0.75
2023-04-01T05:08:17.597Z,0.28
2023-04-01T05:12:20.429Z,0.50
2023-04-01T05:16:23.141Z,0.50
2023-04-01T05:20:25.774Z,0.70
2023-04-01T05:24:29.835Z,0.40
2023-04-01T05:28:32.527Z,0.20
2023-04-01T05:32:35.231Z,0.52
2023-04-01T05:36:38.669Z,0.47
2023-04-01T05:40:42.672Z,0.40
2023-04-01T05:44:45.403Z,0.40
2023-04-01T05:48:48.159Z,0.40
2023-04-01T05:52:50.766Z,0.40
2023-04-01T05:56:54.930Z,0.30
2023-04-01T06:01:09.653Z,0.55
2023-04-01T06:05:19.652Z,0.40
2023-04-01T06:09:28.314Z,0.30
2023-04-01T06:13:47.274Z,0.20
2023-04-01T06:18:07.128Z,0.50
2023-04-01T06:22:42.033Z,0.22
2023-04-01T06:26:52.074Z,0.50
2023-04-01T06:31:06.505Z,0.40
2023-04-01T06:35:33.963Z,0.40
2023-04-01T06:40:02.124Z,0.43
2023-04-01T06:44:17.084Z,0.50
2023-04-01T06:48:39.492Z,0.25
2023-04-01T06:52:49.456Z,0.43
2023-04-01T06:57:00.226Z,0.32
2023-04-01T07:01:05.929Z,0.30
2023-04-01T07:05:13.105Z,0.30
2023-04-01T07:09:20.526Z,0.40
2023-04-01T07:13:28.304Z,0.30
2023-04-01T07:17:34.736Z,0.50
2023-04-01T07:21:44.901Z,0.38
2023-04-01T07:25:51.969Z,0.20
2023-04-01T07:29:58.452Z,0.70
2023-04-01T07:34:10.943Z,0.38
2023-04-01T07:38:28.091Z,0.30
2023-04-01T07:42:42.876Z,0.30
2023-04-01T07:46:57.839Z,0.40
2023-04-01T07:51:04.677Z,0.20
2023-04-01T07:55:15.175Z,0.20
2023-04-01T07:59:25.296Z,0.65
2023-04-01T08:03:38.100Z,0.45
2023-04-01T08:07:50.133Z,0.57
2023-04-01T08:12:05.019Z,0.50
2023-04-01T08:16:15.681Z,0.30
2023-04-01T08:20:30.866Z,0.32
2023-04-01T08:24:47.169Z,0.30
2023-04-01T08:28:57.049Z,0.35
2023-04-01T08:33:07.181Z,0.25
2023-04-01T08:37:14.399Z,0.32
2023-04-01T08:41:50.651Z,0.40
2023-04-01T08:46:09.444Z,0.10
2023-04-01T08:50:40.019Z,0.20
2023-04-01T08:54:58.952Z,0.50
2023-04-01T08:59:24.072Z,0.30
2023-04-01T09:03:53.985Z,0.30
2023-04-01T09:08:07.513Z,0.40
2023-04-01T09:12:26.021Z,0.30
2023-04-01T09:16:59.069Z,0.35
2023-04-01T09:21:29.940Z,0.20
2023-04-01T09:25:48.435Z,0.32
2023-04-01T09:30:10.437Z,0.30
2023-04-01T09:34:33.442Z,0.40
2023-04-01T09:38:54.090Z,0.30
2023-04-01T09:43:19.406Z,0.43
2023-04-01T09:47:36.335Z,0.30
2023-04-01T09:51:45.220Z,0.30
2023-04-01T09:56:36.820Z,0.20
2023-04-01T10:01:30.226Z,0.20
2023-04-01T10:06:05.891Z,0.22
2023-04-01T10:10:49.087Z,0.20
2023-04-01T10:15:32.720Z,0.28
2023-04-01T10:20:04.265Z,0.30
2023-04-01T10:24:45.916Z,0.22
2023-04-01T10:29:21.085Z,0.20
2023-04-01T10:34:10.362Z,0.20
2023-04-01T10:38:43.370Z,0.30
2023-04-01T10:43:41.324Z,0.20
2023-04-01T10:48:25.075Z,0.20
2023-04-01T10:53:06.120Z,0.30
2023-04-01T10:57:28.557Z,0.30
2023-04-01T11:02:12.274Z,0.30
2023-04-01T11:07:02.270Z,0.10
2023-04-01T11:11:49.107Z,0.30
2023-04-01T11:16:36.819Z,0.20
2023-04-01T11:21:07.036Z,0.28
2023-04-01T11:25:42.021Z,0.10
2023-04-01T11:30:00.923Z,0.22
2023-04-01T11:34:13.946Z,0.30
2023-04-01T11:38:42.338Z,0.30
2023-04-01T11:42:51.974Z,0.28
2023-04-01T11:47:15.356Z,0.22
2023-04-01T11:51:55.952Z,0.55
2023-04-01T11:56:17.952Z,0.40
2023-04-01T12:00:55.950Z,0.30
2023-04-01T12:05:38.946Z,0.60
2023-04-01T12:09:52.133Z,0.57
2023-04-01T12:14:01.847Z,0.30
2023-04-01T12:18:14.890Z,0.25
2023-04-01T12:22:42.457Z,0.20
2023-04-01T12:26:57.466Z,0.60
2023-04-01T12:31:15.006Z,0.28
2023-04-01T12:35:23.900Z,0.20
2023-04-01T12:39:51.335Z,0.55
2023-04-01T12:44:18.763Z,0.28
2023-04-01T12:48:54.967Z,0.38
2023-04-01T12:53:12.464Z,0.30
2023-04-01T12:57:31.447Z,0.35
2023-04-01T13:02:07.325Z,0.38
2023-04-01T13:06:42.179Z,0.40
2023-04-01T13:11:02.552Z,0.45
2023-04-01T13:15:25.035Z,0.32
2023-04-01T13:19:33.135Z,0.60
2023-04-01T13:23:49.106Z,0.30
2023-04-01T13:27:58.544Z,0.32
2023-04-01T13:32:15.828Z,0.38
2023-04-01T13:36:29.203Z,0.68
2023-04-01T13:40:49.353Z,0.40
2023-04-01T13:45:04.557Z,0.60
2023-04-01T13:49:35.875Z,0.50
2023-04-01T13:54:00.168Z,0.30
2023-04-01T13:58:28.172Z,0.52
2023-04-01T14:02:49.050Z,0.30
2023-04-01T14:07:02.813Z,0.40
2023-04-01T14:11:18.891Z,0.40
2023-04-01T14:15:43.948Z,0.68
2023-04-01T14:24:27.179Z,0.52
2023-04-01T14:28:39.095Z,0.57
2023-04-01T14:32:51.416Z,0.50
2023-04-01T14:37:22.719Z,0.70
2023-04-01T14:41:38.852Z,0.88
2023-04-01T14:46:08.642Z,0.65
2023-04-01T14:50:17.275Z,0.40
2023-04-01T14:54:24.478Z,0.63
2023-04-01T14:58:40.952Z,0.70
2023-04-01T15:02:53.761Z,0.90
2023-04-01T15:07:17.531Z,0.68
2023-04-01T15:11:30.892Z,0.40
2023-04-01T15:15:41.561Z,1.15
2023-04-01T15:19:59.100Z,0.40
2023-04-01T15:24:11.244Z,1.02
2023-04-01T15:28:27.011Z,0.73
2023-04-01T15:32:41.531Z,0.70
2023-04-01T15:36:53.003Z,0.57
2023-04-01T15:41:04.957Z,0.50
2023-04-01T15:45:20.239Z,0.90
2023-04-01T15:49:38.594Z,0.70
2023-04-01T15:53:57.239Z,0.70
2023-04-01T15:58:25.241Z,0.70
2023-04-01T16:02:35.188Z,0.63
2023-04-01T16:06:50.750Z,0.60
2023-04-01T16:11:10.840Z,0.60
2023-04-01T16:15:27.126Z,0.90
2023-04-01T16:19:39.691Z,0.55
2023-04-01T16:27:56.544Z,0.65
2023-04-01T16:32:22.767Z,0.43
2023-04-01T16:36:31.144Z,0.30
2023-04-01T16:40:44.753Z,0.75
2023-04-01T16:44:56.467Z,0.63
2023-04-01T16:49:15.657Z,0.50
2023-04-01T16:53:22.200Z,0.40
2023-04-01T16:57:30.064Z,0.85
2023-04-01T17:01:44.570Z,0.65
2023-04-01T17:06:03.194Z,0.47
2023-04-01T17:10:30.057Z,0.70
2023-04-01T17:14:43.846Z,1.23
2023-04-01T17:18:58.386Z,0.88
2023-04-01T17:23:10.389Z,0.60
2023-04-01T17:27:25.729Z,0.63
2023-04-01T17:31:44.390Z,0.60
2023-04-01T17:35:56.736Z,0.75
2023-04-01T17:40:17.780Z,0.50
2023-04-01T17:44:35.904Z,0.50
2023-04-01T17:48:51.169Z,0.82
2023-04-01T17:53:07.941Z,0.68
2023-04-01T17:57:36.086Z,0.93
2023-04-01T18:01:49.694Z,0.75
2023-04-01T18:06:06.130Z,0.90
2023-04-01T18:10:31.427Z,0.50
2023-04-01T18:14:51.158Z,0.85
2023-04-01T18:19:03.831Z,1.10
2023-04-01T18:27:20.135Z,1.65
2023-04-01T18:31:27.582Z,0.95
2023-04-01T18:35:47.037Z,0.80
2023-04-01T18:39:52.779Z,0.70
2023-04-01T18:44:06.050Z,1.38
2023-04-01T18:48:36.252Z,1.30
2023-04-01T18:52:42.695Z,1.13
2023-04-01T18:56:47.270Z,1.10
2023-04-01T19:00:59.158Z,1.23
2023-04-01T19:05:08.077Z,1.10
2023-04-01T19:09:28.782Z,1.13
2023-04-01T19:13:40.896Z,1.52
2023-04-01T19:17:56.454Z,1.10
2023-04-01T19:22:16.008Z,0.52
2023-04-01T19:26:26.138Z,1.23
2023-04-01T19:30:43.848Z,0.60
2023-04-01T19:34:56.766Z,0.80
2023-04-01T19:39:18.128Z,0.88
2023-04-01T19:43:40.306Z,0.82
2023-04-01T19:47:55.580Z,0.85
2023-04-01T19:52:04.542Z,1.23
2023-04-01T19:56:17.856Z,0.60
2023-04-01T20:00:28.005Z,1.02
2023-04-01T20:04:35.581Z,1.30
2023-04-01T20:08:44.237Z,0.70
2023-04-01T20:12:56.409Z,0.63
2023-04-01T20:17:09.682Z,1.17
2023-04-01T20:21:29.155Z,0.82
2023-04-01T20:25:37.233Z,0.98
2023-04-01T20:29:54.084Z,1.40
2023-04-01T20:34:25.340Z,1.52
2023-04-01T20:38:49.348Z,0.60
2023-04-01T20:43:16.933Z,0.75
2023-04-01T20:47:32.009Z,1.15
2023-04-01T20:51:39.726Z,0.85
2023-04-01T20:56:14.532Z,1.25
2023-04-01T21:00:35.958Z,0.57
2023-04-01T21:04:57.088Z,0.90
2023-04-01T21:09:13.299Z,1.00
2023-04-01T21:13:30.396Z,1.50
2023-04-01T21:17:44.444Z,1.05
2023-04-01T21:22:17.419Z,0.57
2023-04-01T21:26:31.823Z,0.88
2023-04-01T21:30:49.381Z,0.95
2023-04-01T21:34:58.058Z,1.10
2023-04-01T21:39:17.448Z,0.70
2023-04-01T21:43:36.556Z,0.73
2023-04-01T21:48:15.001Z,1.60
2023-04-01T21:53:02.599Z,1.10
2023-04-01T21:57:45.036Z,0.90
2023-04-01T22:02:06.062Z,0.75
2023-04-01T22:06:19.813Z,0.80
2023-04-01T22:10:31.270Z,1.23
2023-04-01T22:14:43.498Z,1.40
2023-04-01T22:18:53.425Z,1.42
2023-04-01T22:23:09.897Z,1.00
2023-04-01T22:27:19.890Z,1.00
2023-04-01T22:31:29.914Z,1.25
2023-04-01T22:35:39.048Z,1.00
2023-04-01T22:40:02.036Z,1.15
2023-04-01T22:44:04.979Z,0.95
2023-04-01T22:48:14.566Z,1.25
2023-04-01T22:52:24.386Z,0.50
2023-04-01T22:56:33.468Z,0.95
2023-04-01T23:00:41.769Z,0.80
2023-04-01T23:04:50.974Z,0.70
2023-04-01T23:09:13.182Z,1.00
2023-04-01T23:13:21.650Z,0.80
2023-04-01T23:17:38.407Z,1.02
2023-04-01T23:21:46.743Z,0.50
2023-04-01T23:25:59.709Z,0.40
2023-04-01T23:30:02.713Z,0.60
2023-04-01T23:34:22.229Z,0.73
2023-04-01T23:38:28.111Z,0.77
2023-04-01T23:42:32.826Z,0.90
2023-04-01T23:46:37.302Z,0.40
2023-04-01T23:50:40.874Z,0.88
2023-04-01T23:54:50.351Z,0.77
2023-04-01T23:58:57.793Z,0.70
